Time;durP1;ratioP1;P1;durP2;ratioP2;P2;SDS_P1;SDS_P2;PMS_P1;PMS_P2;Temp;Humidity;BMP_temperature;BMP_pressure;BME280_temperature;BME280_humidity;BME280_pressure;Samples;Min_cycle;Max_cycle;Signal;HPM_P1;HPM_P2
2022/03/25 00:00:49;;;;;;;75.67;37.43;;;5.60;99.90;;;;;;5042133;28;20566;-72
2022/03/25 00:03:14;;;;;;;81.37;38.37;;;5.50;99.90;;;;;;5031234;28;21405;-72
2022/03/25 00:05:40;;;;;;;83.57;40.40;;;5.50;99.90;;;;;;5036806;28;20049;-72
2022/03/25 00:08:06;;;;;;;77.73;39.30;;;5.50;99.90;;;;;;5057649;28;20028;-72
2022/03/25 00:10:31;;;;;;;83.53;38.07;;;5.50;99.90;;;;;;5046041;28;20044;-71
2022/03/25 00:12:57;;;;;;;83.90;39.23;;;5.50;99.90;;;;;;5047764;28;20062;-71
2022/03/25 00:15:22;;;;;;;80.13;38.67;;;5.40;99.90;;;;;;5039813;28;20053;-71
2022/03/25 00:17:48;;;;;;;83.17;41.17;;;5.40;99.90;;;;;;5043514;28;20071;-72
2022/03/25 00:20:14;;;;;;;84.57;39.93;;;5.40;99.90;;;;;;5036165;28;20052;-71
2022/03/25 00:22:39;;;;;;;92.90;42.63;;;5.40;99.90;;;;;;5039307;28;20040;-71
2022/03/25 00:25:06;;;;;;;93.10;41.70;;;5.40;99.90;;;;;;5054264;28;20036;-72
2022/03/25 00:27:35;;;;;;;90.22;42.33;;;5.40;99.90;;;;;;5058989;28;20044;-71
2022/03/25 00:30:04;;;;;;;91.88;40.22;;;5.40;99.90;;;;;;5022459;28;20041;-71
2022/03/25 00:32:30;;;;;;;91.90;41.67;;;5.40;99.90;;;;;;5040935;28;20037;-71
2022/03/25 00:34:56;;;;;;;90.33;42.83;;;5.30;99.90;;;;;;5042185;28;20040;-72
2022/03/25 00:37:23;;;;;;;85.90;40.77;;;5.30;99.90;;;;;;5043150;28;20524;-72
2022/03/25 00:39:48;;;;;;;80.82;37.10;;;5.30;99.90;;;;;;5046656;28;20032;-72
2022/03/25 00:42:16;;;;;;;86.33;40.50;;;5.30;99.90;;;;;;5034576;28;20052;-71
2022/03/25 00:44:41;;;;;;;86.45;40.95;;;5.30;99.90;;;;;;5053902;28;20638;-71
2022/03/25 00:47:07;;;;;;;88.03;41.33;;;5.30;99.90;;;;;;5044026;28;20040;-71
2022/03/25 00:49:33;;;;;;;91.80;40.72;;;5.20;99.90;;;;;;5045054;28;20060;-71
2022/03/25 00:51:58;;;;;;;85.13;40.70;;;5.30;99.90;;;;;;5038673;28;20041;-71
2022/03/25 00:54:24;;;;;;;85.40;39.20;;;5.20;99.90;;;;;;5050009;28;20044;-71
2022/03/25 00:56:50;;;;;;;79.15;38.00;;;5.20;99.90;;;;;;5098876;22;20519;-72
2022/03/25 00:59:16;;;;;;;79.63;39.03;;;5.10;99.90;;;;;;5038800;28;20067;-72
2022/03/25 01:01:41;;;;;;;83.97;39.37;;;5.10;99.90;;;;;;5036340;28;20045;-74
2022/03/25 01:04:08;;;;;;;81.67;37.73;;;5.10;99.90;;;;;;5034028;28;20397;-74
2022/03/25 01:06:34;;;;;;;85.07;39.35;;;5.10;99.90;;;;;;5039417;28;20528;-74
2022/03/25 01:09:01;;;;;;;86.28;40.80;;;5.10;99.90;;;;;;5029856;28;20128;-74
2022/03/25 01:11:27;;;;;;;83.00;39.42;;;5.10;99.90;;;;;;5036969;28;20178;-74
2022/03/25 01:13:53;;;;;;;89.00;38.57;;;5.10;99.90;;;;;;5035025;28;21181;-73
2022/03/25 01:16:19;;;;;;;87.00;39.87;;;4.90;99.90;;;;;;5039926;28;20090;-73
2022/03/25 01:18:44;;;;;;;86.20;38.87;;;5.00;99.90;;;;;;5039704;28;20108;-73
2022/03/25 01:21:10;;;;;;;83.60;38.93;;;4.90;99.90;;;;;;5038701;28;20052;-74
2022/03/25 01:23:35;;;;;;;85.73;38.90;;;4.90;99.90;;;;;;5040145;28;20060;-73
2022/03/25 01:26:03;;;;;;;85.77;38.63;;;4.90;99.90;;;;;;5037804;28;20110;-74
2022/03/25 01:28:34;;;;;;;85.53;38.35;;;4.90;99.90;;;;;;5041189;28;20064;-74
2022/03/25 01:31:00;;;;;;;82.47;39.35;;;4.90;99.90;;;;;;5036250;28;20052;-74
2022/03/25 01:33:27;;;;;;;82.15;39.78;;;4.90;99.90;;;;;;5040385;28;20145;-74
2022/03/25 01:35:52;;;;;;;90.97;41.17;;;4.80;99.90;;;;;;5036393;28;21674;-73
2022/03/25 01:38:18;;;;;;;79.53;39.07;;;4.80;99.90;;;;;;5032206;28;20080;-74
2022/03/25 01:40:44;;;;;;;81.13;39.70;;;4.80;99.90;;;;;;5044379;28;20147;-74
2022/03/25 01:43:09;;;;;;;87.23;40.47;;;4.80;99.90;;;;;;5040684;28;20052;-73
2022/03/25 01:45:37;;;;;;;80.60;38.37;;;4.70;99.90;;;;;;5037321;28;20041;-73
2022/03/25 01:48:13;;;;;;;88.60;39.40;;;4.70;99.90;;;;;;5038553;28;20064;-74
2022/03/25 01:50:42;;;;;;;81.78;39.83;;;4.70;99.90;;;;;;5024547;28;20169;-74
2022/03/25 01:53:15;;;;;;;82.78;37.92;;;4.70;99.90;;;;;;5037254;28;20384;-74
2022/03/25 01:55:56;;;;;;;81.55;40.17;;;4.70;99.90;;;;;;5026262;28;20044;-73
2022/03/25 01:58:23;;;;;;;82.72;39.65;;;4.60;99.90;;;;;;5031740;28;20062;-74
2022/03/25 02:00:50;;;;;;;91.88;38.55;;;4.60;99.90;;;;;;5041435;28;20032;-73
2022/03/25 02:03:16;;;;;;;81.78;38.80;;;4.60;99.90;;;;;;5017950;28;20049;-74
2022/03/25 02:05:43;;;;;;;81.57;38.00;;;4.50;99.90;;;;;;5041243;28;20128;-74
2022/03/25 02:08:09;;;;;;;81.43;37.60;;;4.60;99.90;;;;;;5034955;28;20099;-73
2022/03/25 02:10:35;;;;;;;83.20;37.92;;;4.50;99.90;;;;;;5038069;28;20041;-74
2022/03/25 02:13:02;;;;;;;79.93;38.38;;;4.50;99.90;;;;;;5042311;28;20056;-74
2022/03/25 02:15:35;;;;;;;;;;;4.50;99.90;;;;;;5037539;28;20106;-73
2022/03/25 02:18:07;;;;;;;82.15;37.72;;;4.50;99.90;;;;;;5040280;28;19978;-73
2022/03/25 02:20:33;;;;;;;82.28;39.83;;;4.50;99.90;;;;;;5023468;28;20051;-73
2022/03/25 02:22:59;;;;;;;;;;;4.50;99.90;;;;;;5037307;28;20037;-73
2022/03/25 02:25:29;;;;;;;79.70;37.05;;;4.60;99.90;;;;;;5036476;28;20274;-74
2022/03/25 02:27:57;;;;;;;79.35;35.28;;;4.60;99.90;;;;;;5042531;28;20095;-73
2022/03/25 02:30:23;;;;;;;77.40;37.47;;;4.60;99.90;;;;;;5038030;28;20412;-73
2022/03/25 02:32:48;;;;;;;77.10;35.37;;;4.60;99.90;;;;;;5040060;28;20037;-73
2022/03/25 02:35:14;;;;;;;84.17;36.63;;;4.60;99.90;;;;;;5019535;28;20410;-73
2022/03/25 02:37:40;;;;;;;76.60;36.03;;;4.50;99.90;;;;;;5041090;28;20065;-73
2022/03/25 02:40:06;;;;;;;72.40;35.17;;;4.40;99.90;;;;;;5039936;28;20197;-74
2022/03/25 02:42:32;;;;;;;82.55;37.33;;;4.50;99.90;;;;;;5042233;28;20120;-74
2022/03/25 02:44:58;;;;;;;76.77;36.27;;;4.40;99.90;;;;;;5039876;28;20041;-73
2022/03/25 02:47:23;;;;;;;80.60;37.47;;;4.40;99.90;;;;;;5041369;28;20067;-73
2022/03/25 02:49:51;;;;;;;83.07;36.27;;;4.40;99.90;;;;;;5039026;28;20441;-73
2022/03/25 02:52:16;;;;;;;83.60;37.75;;;4.40;99.90;;;;;;5044777;28;20128;-73
2022/03/25 02:54:42;;;;;;;71.60;35.50;;;4.30;99.90;;;;;;5041964;28;20077;-74
2022/03/25 02:57:19;;;;;;;74.80;34.70;;;4.30;99.90;;;;;;5033559;28;20436;-74
2022/03/25 02:59:45;;;;;;;82.15;35.83;;;4.30;99.90;;;;;;5006999;28;20143;-74
2022/03/25 03:02:12;;;;;;;70.47;33.93;;;4.20;99.90;;;;;;5018975;28;20120;-73
2022/03/25 03:04:38;;;;;;;78.20;35.60;;;4.20;99.90;;;;;;5038679;28;20282;-73
2022/03/25 03:07:03;;;;;;;76.40;36.63;;;4.20;99.90;;;;;;5037439;28;20060;-74
2022/03/25 03:09:29;;;;;;;75.10;36.90;;;4.20;99.90;;;;;;5037690;28;20042;-73
2022/03/25 03:11:54;;;;;;;77.93;35.40;;;4.10;99.90;;;;;;5034327;28;20041;-74
2022/03/25 03:14:20;;;;;;;78.13;35.60;;;4.10;99.90;;;;;;5037761;28;20045;-73
2022/03/25 03:16:46;;;;;;;81.83;34.33;;;4.10;99.90;;;;;;5038647;28;20037;-73
2022/03/25 03:19:12;;;;;;;73.37;34.63;;;4.00;99.90;;;;;;5044093;28;20044;-73
2022/03/25 03:21:38;;;;;;;;;;;4.00;99.90;;;;;;5019025;28;20258;-73
2022/03/25 03:24:04;;;;;;;65.90;30.52;;;3.90;99.90;;;;;;5036293;28;20369;-74
2022/03/25 03:26:30;;;;;;;63.85;30.98;;;3.90;99.90;;;;;;5037933;28;20151;-74
2022/03/25 03:28:55;;;;;;;71.57;33.17;;;3.90;99.90;;;;;;5037952;28;20120;-73
2022/03/25 03:31:24;;;;;;;67.72;31.50;;;3.90;99.90;;;;;;5034645;28;20144;-73
2022/03/25 03:33:49;;;;;;;63.87;31.33;;;3.80;99.90;;;;;;5041971;28;20123;-73
2022/03/25 03:36:15;;;;;;;65.57;30.93;;;3.80;99.90;;;;;;5034978;28;20073;-73
2022/03/25 03:38:41;;;;;;;66.63;29.83;;;3.80;99.90;;;;;;5030921;28;20040;-73
2022/03/25 03:41:07;;;;;;;65.70;30.70;;;3.80;99.90;;;;;;5035417;28;20260;-73
2022/03/25 03:43:33;;;;;;;64.68;29.15;;;3.80;99.90;;;;;;5038244;28;20044;-74
2022/03/25 03:45:58;;;;;;;66.63;29.73;;;3.90;99.90;;;;;;5032241;28;20088;-73
2022/03/25 03:48:24;;;;;;;62.47;30.40;;;3.80;99.90;;;;;;5022760;28;20488;-73
2022/03/25 03:50:49;;;;;;;66.50;31.63;;;3.80;99.90;;;;;;5034518;28;20496;-73
2022/03/25 03:53:15;;;;;;;66.70;30.77;;;3.80;99.90;;;;;;5035662;28;20158;-74
2022/03/25 03:55:41;;;;;;;61.83;28.03;;;3.80;99.90;;;;;;5039804;28;20048;-73
2022/03/25 03:58:06;;;;;;;59.90;29.47;;;3.70;99.90;;;;;;5031773;28;20090;-73
2022/03/25 04:00:32;;;;;;;62.13;28.43;;;3.70;99.90;;;;;;5035709;28;20459;-74
2022/03/25 04:02:58;;;;;;;64.43;28.98;;;3.70;99.90;;;;;;5039944;28;20045;-73
2022/03/25 04:05:23;;;;;;;62.93;27.90;;;3.70;99.90;;;;;;5036287;28;20097;-74
2022/03/25 04:07:49;;;;;;;55.57;26.43;;;3.70;99.90;;;;;;5037167;28;20055;-74
2022/03/25 04:10:17;;;;;;;57.47;28.20;;;3.70;99.90;;;;;;5030971;28;20382;-73
2022/03/25 04:12:42;;;;;;;57.25;26.60;;;3.60;99.90;;;;;;5035669;28;20401;-74
2022/03/25 04:15:09;;;;;;;55.30;26.77;;;3.60;99.90;;;;;;5032978;28;20033;-74
2022/03/25 04:17:39;;;;;;;59.20;27.23;;;3.60;99.90;;;;;;5030036;28;20098;-74
2022/03/25 04:20:07;;;;;;;57.05;27.83;;;3.60;99.90;;;;;;5024194;28;20049;-74
2022/03/25 04:22:33;;;;;;;62.00;28.33;;;3.60;99.90;;;;;;5037911;28;20610;-74
2022/03/25 04:24:59;;;;;;;59.20;26.10;;;3.70;99.90;;;;;;5036856;28;20102;-74
2022/03/25 04:27:24;;;;;;;57.47;26.73;;;3.70;99.90;;;;;;5028748;28;20076;-74
2022/03/25 04:29:51;;;;;;;54.73;27.13;;;3.70;99.90;;;;;;5040431;28;20472;-74
2022/03/25 04:32:17;;;;;;;51.63;26.27;;;3.70;99.90;;;;;;5032214;28;20078;-74
2022/03/25 04:34:42;;;;;;;52.50;25.30;;;3.60;99.90;;;;;;5033687;28;20041;-74
2022/03/25 04:37:09;;;;;;;61.07;29.90;;;3.60;99.90;;;;;;5031071;28;20041;-74
2022/03/25 04:39:35;;;;;;;;;;;3.70;99.90;;;;;;5041344;28;20128;-73
2022/03/25 04:42:01;;;;;;;56.25;27.88;;;3.60;99.90;;;;;;5036953;28;20282;-74
2022/03/25 04:44:26;;;;;;;55.90;26.83;;;3.60;99.90;;;;;;5034502;28;20040;-74
2022/03/25 04:46:54;;;;;;;57.73;27.63;;;3.70;99.90;;;;;;5035357;28;20175;-74
2022/03/25 04:49:19;;;;;;;57.10;27.45;;;3.60;99.90;;;;;;5028820;28;20099;-74
2022/03/25 04:51:45;;;;;;;52.33;25.43;;;3.70;99.90;;;;;;5033069;28;20048;-74
2022/03/25 04:54:11;;;;;;;55.53;25.73;;;3.60;99.90;;;;;;5036662;28;20243;-74
2022/03/25 04:56:36;;;;;;;50.27;25.17;;;3.60;99.90;;;;;;4991881;28;1068931;-73
2022/03/25 04:59:03;;;;;;;57.10;27.37;;;3.60;99.90;;;;;;5033707;28;20158;-73
2022/03/25 05:01:29;;;;;;;;;;;3.60;99.90;;;;;;5035517;28;20037;-73
2022/03/25 05:03:55;;;;;;;56.88;27.05;;;3.60;99.90;;;;;;5043381;28;19917;-74
2022/03/25 05:06:20;;;;;;;60.63;28.00;;;3.60;99.90;;;;;;5034090;28;20316;-74
2022/03/25 05:08:46;;;;;;;64.17;27.50;;;3.60;99.90;;;;;;5040391;28;20037;-74
2022/03/25 05:11:11;;;;;;;58.87;27.43;;;3.60;99.90;;;;;;5030602;28;20117;-73
2022/03/25 05:13:37;;;;;;;62.27;28.97;;;3.60;99.90;;;;;;5038656;28;20041;-73
2022/03/25 05:16:03;;;;;;;53.77;27.70;;;3.50;99.90;;;;;;5040387;28;20073;-73
2022/03/25 05:18:28;;;;;;;69.63;29.50;;;3.50;99.90;;;;;;5035144;28;20053;-74
2022/03/25 05:20:54;;;;;;;64.73;29.33;;;3.50;99.90;;;;;;5042856;28;20036;-74
2022/03/25 05:23:19;;;;;;;60.40;27.30;;;3.50;99.90;;;;;;5022470;28;20041;-73
2022/03/25 05:25:45;;;;;;;54.87;26.47;;;3.60;99.90;;;;;;5038233;28;20124;-73
2022/03/25 05:28:11;;;;;;;61.63;27.60;;;3.50;99.90;;;;;;5044023;28;20377;-74
2022/03/25 05:30:36;;;;;;;64.57;30.57;;;3.50;99.90;;;;;;5022186;28;20099;-74
2022/03/25 05:33:03;;;;;;;66.37;28.90;;;3.50;99.90;;;;;;5039718;28;20196;-74
2022/03/25 05:35:30;;;;;;;56.97;27.27;;;3.50;99.90;;;;;;5038624;28;20055;-73
2022/03/25 05:37:56;;;;;;;55.70;26.20;;;3.50;99.90;;;;;;5043974;28;20121;-73
2022/03/25 05:40:23;;;;;;;60.22;28.20;;;3.50;99.90;;;;;;5038682;28;20400;-74
2022/03/25 05:42:50;;;;;;;57.35;27.77;;;3.50;99.90;;;;;;5037022;28;20041;-74
2022/03/25 05:45:17;;;;;;;;;;;3.50;99.90;;;;;;5030260;28;20041;-73
2022/03/25 05:47:42;;;;;;;62.38;25.55;;;3.40;99.90;;;;;;5041701;28;19916;-74
2022/03/25 05:50:10;;;;;;;56.87;26.77;;;3.50;99.90;;;;;;5037405;28;20049;-74
2022/03/25 05:52:35;;;;;;;60.35;27.35;;;3.50;99.90;;;;;;5013870;28;20099;-73
2022/03/25 05:55:04;;;;;;;62.10;29.40;;;3.50;99.90;;;;;;5036817;28;20052;-73
2022/03/25 05:57:30;;;;;;;57.17;26.83;;;3.50;99.90;;;;;;5044295;28;20151;-74
2022/03/25 05:59:58;;;;;;;64.03;29.67;;;3.60;99.90;;;;;;5035793;28;20075;-73
2022/03/25 06:02:23;;;;;;;66.90;29.30;;;3.60;99.90;;;;;;5035438;28;20383;-73
2022/03/25 06:04:49;;;;;;;60.37;27.77;;;3.70;99.90;;;;;;5040719;28;20124;-74
2022/03/25 06:07:15;;;;;;;65.67;29.07;;;3.70;99.90;;;;;;5042105;28;20052;-73
2022/03/25 06:09:40;;;;;;;60.50;27.33;;;3.70;99.90;;;;;;5041155;28;20049;-73
2022/03/25 06:12:06;;;;;;;61.23;28.60;;;3.80;99.90;;;;;;5035904;28;20072;-73
2022/03/25 06:14:32;;;;;;;59.45;27.33;;;3.80;99.90;;;;;;5041684;28;20057;-73
2022/03/25 06:16:58;;;;;;;55.37;27.93;;;3.80;99.90;;;;;;5040827;28;20059;-73
2022/03/25 06:19:23;;;;;;;59.47;26.67;;;3.80;99.90;;;;;;5040748;28;20062;-74
2022/03/25 06:21:49;;;;;;;62.80;26.87;;;3.90;99.90;;;;;;5045147;28;20131;-73
2022/03/25 06:24:16;;;;;;;54.70;24.97;;;3.90;99.90;;;;;;5043691;28;20040;-73
2022/03/25 06:26:41;;;;;;;58.95;27.92;;;4.00;99.90;;;;;;5041285;28;20320;-74
2022/03/25 06:29:09;;;;;;;61.10;26.93;;;4.00;99.90;;;;;;5041971;28;20049;-73
2022/03/25 06:31:35;;;;;;;65.95;30.35;;;4.00;99.90;;;;;;5040185;28;20330;-73
2022/03/25 06:34:00;;;;;;;65.97;29.07;;;4.10;99.90;;;;;;5042284;28;20132;-73
2022/03/25 06:36:26;;;;;;;65.03;30.50;;;4.20;99.90;;;;;;5019667;28;20152;-74
2022/03/25 06:38:51;;;;;;;56.50;27.57;;;4.20;99.90;;;;;;5046713;28;20094;-73
2022/03/25 06:41:17;;;;;;;62.13;29.57;;;4.30;99.90;;;;;;5038141;28;20125;-74
2022/03/25 06:43:42;;;;;;;65.97;29.60;;;4.30;99.90;;;;;;5037121;28;20041;-74
2022/03/25 06:46:09;;;;;;;64.50;29.73;;;4.40;99.90;;;;;;5040457;28;20564;-73
2022/03/25 06:48:35;;;;;;;66.68;30.65;;;4.50;99.90;;;;;;5047341;28;20032;-74
2022/03/25 06:51:01;;;;;;;64.00;29.08;;;4.60;99.90;;;;;;5044581;28;20052;-74
2022/03/25 06:53:27;;;;;;;61.78;27.60;;;4.70;99.90;;;;;;5037367;28;20045;-74
2022/03/25 06:55:53;;;;;;;65.07;28.43;;;4.70;99.90;;;;;;5037813;28;20045;-73
2022/03/25 06:58:19;;;;;;;61.72;28.10;;;4.80;99.90;;;;;;5040684;22;20042;-73
2022/03/25 07:00:46;;;;;;;70.25;30.38;;;4.90;99.90;;;;;;5019017;28;20630;-73
2022/03/25 07:03:12;;;;;;;62.92;27.83;;;5.00;99.90;;;;;;5018351;28;20520;-72
2022/03/25 07:05:38;;;;;;;67.13;28.17;;;5.10;99.90;;;;;;5018781;28;20045;-73
2022/03/25 07:08:04;;;;;;;60.05;27.63;;;5.20;99.90;;;;;;5013349;28;20052;-70
2022/03/25 07:10:30;;;;;;;60.05;26.55;;;5.30;99.90;;;;;;5016966;28;20042;-71
2022/03/25 07:12:56;;;;;;;65.00;28.10;;;5.40;99.90;;;;;;5038722;28;20114;-70
2022/03/25 07:15:22;;;;;;;54.13;26.05;;;5.50;99.90;;;;;;5016624;28;20049;-71
2022/03/25 07:17:48;;;;;;;59.33;26.85;;;5.60;99.90;;;;;;4985318;28;20096;-71
2022/03/25 07:20:16;;;;;;;61.75;26.85;;;5.70;99.90;;;;;;5022850;28;20042;-76
2022/03/25 07:22:50;;;;;;;55.10;26.95;;;5.80;99.90;;;;;;5000275;28;20080;-71
2022/03/25 07:25:17;;;;;;;59.63;25.83;;;5.90;99.90;;;;;;5011025;28;20037;-70
2022/03/25 07:27:43;;;;;;;;;;;6.00;99.90;;;;;;5016488;28;20033;-71
2022/03/25 07:30:11;;;;;;;53.78;23.67;;;6.10;99.90;;;;;;5020319;28;19917;-71
2022/03/25 07:32:36;;;;;;;51.58;25.80;;;6.20;99.90;;;;;;5019396;28;20041;-71
2022/03/25 07:35:04;;;;;;;51.30;22.67;;;6.30;99.90;;;;;;5019570;28;20049;-71
2022/03/25 07:37:29;;;;;;;55.88;24.30;;;6.40;99.90;;;;;;5022881;28;20050;-71
2022/03/25 07:39:55;;;;;;;50.40;23.83;;;6.50;99.90;;;;;;5022050;28;20045;-71
2022/03/25 07:42:22;;;;;;;59.07;24.73;;;6.50;99.90;;;;;;5002658;28;20045;-71
2022/03/25 07:44:49;;;;;;;45.22;21.30;;;6.60;99.90;;;;;;5015445;28;20079;-72
2022/03/25 07:47:15;;;;;;;49.03;23.98;;;6.70;99.90;;;;;;5006647;28;20041;-71
2022/03/25 07:49:42;;;;;;;50.72;23.13;;;6.80;99.90;;;;;;5019720;28;20489;-72
2022/03/25 07:52:10;;;;;;;45.28;22.15;;;7.00;99.90;;;;;;5015284;28;20049;-71
2022/03/25 07:54:37;;;;;;;41.22;21.45;;;7.10;99.90;;;;;;5001825;28;20049;-72
2022/03/25 07:57:03;;;;;;;;;;;7.20;99.90;;;;;;5022555;28;20657;-71
2022/03/25 07:59:29;;;;;;;36.90;19.08;;;7.30;99.90;;;;;;5011095;28;19967;-72
2022/03/25 08:01:55;;;;;;;44.42;20.40;;;7.30;99.90;;;;;;5014690;28;20046;-72
2022/03/25 08:04:24;;;;;;;35.15;18.77;;;7.50;99.90;;;;;;5022013;28;20037;-71
2022/03/25 08:06:50;;;;;;;37.10;19.08;;;7.60;99.90;;;;;;5006314;28;20033;-72
2022/03/25 08:09:16;;;;;;;42.72;19.45;;;7.60;99.90;;;;;;5028085;28;20048;-74
2022/03/25 08:11:42;;;;;;;37.03;18.05;;;7.80;99.90;;;;;;5026685;28;20067;-71
2022/03/25 08:14:07;;;;;;;35.92;16.85;;;7.90;99.90;;;;;;5019381;28;20141;-71
2022/03/25 08:16:33;;;;;;;35.43;16.00;;;8.00;99.90;;;;;;5025153;28;20036;-72
2022/03/25 08:18:59;;;;;;;31.90;16.37;;;8.10;99.90;;;;;;5024538;28;20460;-72
2022/03/25 08:21:24;;;;;;;31.47;16.93;;;8.20;99.90;;;;;;5026654;28;20729;-72
2022/03/25 08:29:18;;;;;;;31.85;15.32;;;8.60;99.90;;;;;;5025736;28;20128;-72
2022/03/25 08:31:47;;;;;;;37.77;15.93;;;8.70;99.90;;;;;;5025484;28;20117;-71
2022/03/25 08:34:16;;;;;;;28.88;14.70;;;8.70;99.90;;;;;;5041654;28;20632;-72
2022/03/25 08:36:43;;;;;;;31.67;15.98;;;8.80;99.90;;;;;;5019710;28;20083;-72
2022/03/25 08:39:09;;;;;;;39.42;16.55;;;8.90;99.90;;;;;;5019657;28;20048;-72
2022/03/25 08:41:35;;;;;;;33.63;15.57;;;9.00;99.90;;;;;;5020280;28;20038;-72
2022/03/25 08:44:00;;;;;;;34.07;15.30;;;9.10;99.90;;;;;;5016589;28;20068;-73
2022/03/25 08:46:26;;;;;;;33.23;15.70;;;9.20;99.90;;;;;;5016829;28;20516;-72
2022/03/25 08:48:52;;;;;;;32.57;16.17;;;9.30;99.90;;;;;;5020705;28;20430;-72
2022/03/25 08:51:18;;;;;;;27.50;15.13;;;9.30;99.90;;;;;;5020244;28;20044;-72
2022/03/25 08:53:44;;;;;;;32.70;17.08;;;9.40;99.90;;;;;;5025722;28;20072;-72
2022/03/25 08:56:10;;;;;;;36.08;16.67;;;9.50;99.90;;;;;;5020893;28;20060;-72
2022/03/25 08:58:35;;;;;;;28.63;15.32;;;9.50;99.90;;;;;;5012629;28;20041;-72
2022/03/25 09:01:01;;;;;;;34.40;16.17;;;9.60;99.90;;;;;;5021292;28;20052;-72
2022/03/25 09:03:27;;;;;;;30.55;16.55;;;9.60;99.90;;;;;;5024963;28;20041;-72
2022/03/25 09:05:53;;;;;;;28.67;15.13;;;9.70;99.90;;;;;;5020014;28;20045;-72
2022/03/25 09:08:18;;;;;;;29.63;14.57;;;9.90;99.90;;;;;;5022293;28;20034;-72
2022/03/25 09:10:44;;;;;;;33.87;13.87;;;9.90;99.90;;;;;;5023337;28;20072;-72
2022/03/25 09:13:11;;;;;;;30.52;15.02;;;10.00;99.90;;;;;;5022171;28;20060;-72
2022/03/25 09:15:37;;;;;;;30.13;15.40;;;10.10;99.90;;;;;;5016788;28;20041;-72
2022/03/25 09:18:03;;;;;;;30.23;15.00;;;10.30;99.90;;;;;;5019276;28;20041;-72
2022/03/25 09:20:28;;;;;;;28.90;13.83;;;10.40;99.90;;;;;;5015850;28;20045;-72
2022/03/25 09:22:54;;;;;;;30.27;13.60;;;10.50;99.90;;;;;;5022586;28;20100;-72
2022/03/25 09:25:20;;;;;;;27.13;15.32;;;10.60;99.90;;;;;;5023732;28;20088;-72
2022/03/25 09:27:46;;;;;;;28.67;13.90;;;10.70;99.90;;;;;;5024977;28;20488;-72
2022/03/25 09:30:13;;;;;;;24.70;13.80;;;10.90;99.90;;;;;;5026467;28;20128;-72
2022/03/25 09:32:38;;;;;;;;;;;11.00;99.90;;;;;;5021114;28;20045;-72
2022/03/25 09:35:10;;;;;;;30.48;14.82;;;11.10;94.10;;;;;;5024369;28;20376;-72
2022/03/25 09:37:44;;;;;;;41.97;15.15;;;11.20;99.90;;;;;;5023806;28;20046;-72
2022/03/25 09:40:17;;;;;;;32.85;14.27;;;11.30;99.30;;;;;;5024731;28;20049;-72
2022/03/25 09:42:43;;;;;;;30.92;14.23;;;11.50;97.00;;;;;;5032904;28;20048;-72
2022/03/25 09:45:11;;;;;;;26.95;12.75;;;11.70;95.50;;;;;;5028559;28;20490;-72
2022/03/25 09:47:37;;;;;;;30.48;13.57;;;11.80;94.60;;;;;;5025809;28;20041;-72
2022/03/25 09:50:05;;;;;;;27.45;13.68;;;12.00;91.00;;;;;;5024978;28;20045;-72
2022/03/25 09:52:33;;;;;;;27.65;12.93;;;12.10;91.50;;;;;;5026122;28;20034;-72
2022/03/25 09:54:59;;;;;;;24.35;12.88;;;12.20;87.90;;;;;;5021806;28;20037;-72
2022/03/25 09:57:28;;;;;;;31.95;14.70;;;12.40;85.50;;;;;;5021726;28;20375;-72
2022/03/25 09:59:54;;;;;;;25.02;13.10;;;12.50;82.90;;;;;;5017202;28;20038;-72
2022/03/25 10:02:19;;;;;;;27.40;14.57;;;12.60;82.30;;;;;;5023077;28;20532;-72
2022/03/25 10:04:48;;;;;;;29.85;14.43;;;12.70;83.70;;;;;;5016579;28;20569;-72
2022/03/25 10:07:26;;;;;;;28.98;14.32;;;12.90;85.20;;;;;;5023146;28;20046;-72
2022/03/25 10:10:10;;;;;;;27.70;14.90;;;13.10;81.50;;;;;;5021053;28;20537;-72
2022/03/25 10:12:37;;;;;;;28.92;13.85;;;13.40;71.30;;;;;;5018029;28;20064;-72
2022/03/25 10:15:21;;;;;;;28.05;14.98;;;13.30;73.80;;;;;;5024897;28;20049;-72
2022/03/25 10:18:04;;;;;;;34.63;15.82;;;13.40;69.70;;;;;;5010987;28;20041;-73
2022/03/25 10:20:38;;;;;;;27.38;14.05;;;13.50;69.80;;;;;;5022215;28;20121;-73
2022/03/25 10:23:08;;;;;;;32.08;15.07;;;13.60;67.90;;;;;;5017536;28;20060;-73
2022/03/25 10:25:47;;;;;;;33.00;14.50;;;13.70;67.60;;;;;;5027247;28;20049;-72
2022/03/25 10:28:27;;;;;;;27.95;13.85;;;13.80;64.70;;;;;;5019423;28;20046;-73
2022/03/25 10:31:00;;;;;;;26.90;13.18;;;13.90;65.40;;;;;;5015394;28;20069;-72
2022/03/25 10:33:25;;;;;;;33.03;14.98;;;14.00;64.00;;;;;;5038007;28;20239;-72
2022/03/25 10:36:01;;;;;;;32.40;16.77;;;14.00;63.30;;;;;;5018448;28;20034;-72
2022/03/25 10:38:47;;;;;;;30.60;14.23;;;14.10;64.10;;;;;;5020761;28;20357;-72
2022/03/25 10:41:16;;;;;;;28.42;14.10;;;14.20;63.30;;;;;;5014814;28;20429;-72
2022/03/25 10:43:53;;;;;;;27.58;15.43;;;14.30;63.40;;;;;;5018537;28;20041;-72
2022/03/25 10:46:36;;;;;;;29.80;14.75;;;14.40;62.60;;;;;;5014297;28;20060;-72
2022/03/25 10:49:07;;;;;;;29.75;16.45;;;14.50;62.40;;;;;;5016355;28;20049;-72
2022/03/25 10:51:38;;;;;;;26.10;14.95;;;14.70;63.40;;;;;;5021814;28;20046;-72
2022/03/25 10:54:12;;;;;;;32.97;15.13;;;14.80;62.10;;;;;;5040604;28;20037;-73
2022/03/25 10:56:45;;;;;;;31.02;14.88;;;14.90;60.70;;;;;;5023962;28;20501;-73
2022/03/25 10:59:32;;;;;;;28.27;14.65;;;15.00;60.40;;;;;;5023861;28;20034;-73
2022/03/25 11:01:59;;;;;;;31.20;15.60;;;15.10;58.50;;;;;;5020800;28;20107;-73
2022/03/25 11:04:26;;;;;;;29.48;14.25;;;15.20;58.60;;;;;;5024408;28;20133;-73
2022/03/25 11:06:53;;;;;;;33.83;15.25;;;15.30;58.90;;;;;;5022512;28;20406;-73
2022/03/25 11:09:20;;;;;;;28.73;15.20;;;15.40;58.10;;;;;;5028798;28;20056;-72
2022/03/25 11:11:48;;;;;;;28.25;14.65;;;15.50;58.50;;;;;;5022618;28;20048;-73
2022/03/25 11:14:15;;;;;;;31.58;15.38;;;15.60;58.50;;;;;;5022923;28;20041;-73
2022/03/25 11:17:03;;;;;;;33.92;15.57;;;15.90;57.50;;;;;;5024885;28;20119;-73
2022/03/25 11:19:29;;;;;;;28.70;15.85;;;15.80;55.10;;;;;;5024350;28;20452;-73
2022/03/25 11:21:55;;;;;;;30.73;15.77;;;15.90;55.90;;;;;;5024852;28;20049;-73
2022/03/25 11:24:36;;;;;;;;;;;16.00;56.30;;;;;;5018683;28;20056;-72
2022/03/25 11:27:32;;;;;;;28.38;15.02;;;16.00;54.20;;;;;;5019396;28;20019;-73
2022/03/25 11:30:13;;;;;;;32.50;15.18;;;16.20;55.20;;;;;;5022498;28;20050;-73
2022/03/25 11:32:57;;;;;;;32.17;15.45;;;16.30;53.30;;;;;;5029189;28;20207;-73
2022/03/25 11:35:24;;;;;;;30.02;16.55;;;16.30;53.10;;;;;;5021617;28;20131;-74
2022/03/25 11:38:25;;;;;;;32.25;15.27;;;16.40;54.30;;;;;;5017597;28;20041;-73
2022/03/25 11:40:52;;;;;;;30.00;16.30;;;16.60;52.80;;;;;;4983434;28;20113;-72
2022/03/25 11:43:20;;;;;;;30.40;14.60;;;16.60;54.10;;;;;;5019530;28;20045;-73
2022/03/25 11:46:04;;;;;;;28.55;15.10;;;16.60;52.80;;;;;;5024530;28;20073;-73
2022/03/25 11:48:29;;;;;;;25.83;13.10;;;16.70;51.50;;;;;;5022802;28;20081;-73
2022/03/25 11:50:55;;;;;;;31.53;14.47;;;16.70;52.50;;;;;;5023248;28;20283;-73
2022/03/25 11:53:22;;;;;;;24.35;13.65;;;16.80;51.90;;;;;;5023528;28;20291;-73
2022/03/25 11:56:03;;;;;;;30.42;12.40;;;16.90;51.80;;;;;;5015710;28;20059;-73
2022/03/25 11:58:30;;;;;;;24.77;12.50;;;17.00;50.50;;;;;;5020512;28;20045;-73
2022/03/25 12:01:09;;;;;;;27.73;13.85;;;17.10;50.70;;;;;;5023392;28;20233;-73
2022/03/25 12:03:49;;;;;;;28.13;13.50;;;17.10;49.40;;;;;;5020423;28;20383;-73
2022/03/25 12:06:16;;;;;;;24.70;12.88;;;17.20;49.10;;;;;;5001351;28;20045;-73
2022/03/25 12:08:54;;;;;;;23.13;13.13;;;17.20;49.40;;;;;;5016267;28;20231;-73
2022/03/25 12:11:47;;;;;;;28.02;13.57;;;17.30;48.40;;;;;;5015638;28;20406;-73
2022/03/25 12:14:12;;;;;;;25.08;13.50;;;17.30;47.90;;;;;;5022608;28;20424;-73
2022/03/25 12:16:47;;;;;;;25.35;10.77;;;17.40;48.60;;;;;;5016466;28;20545;-74
2022/03/25 12:19:28;;;;;;;20.17;11.48;;;17.50;47.10;;;;;;5019653;28;20075;-73
2022/03/25 12:22:25;;;;;;;25.95;12.10;;;17.60;47.10;;;;;;5021539;28;20077;-73
2022/03/25 12:24:52;;;;;;;21.65;10.88;;;17.60;48.20;;;;;;5019163;28;20075;-73
2022/03/25 12:27:19;;;;;;;24.10;10.88;;;17.70;46.50;;;;;;5025484;28;20041;-73
2022/03/25 12:29:51;;;;;;;24.23;11.43;;;17.70;46.10;;;;;;5020831;28;20123;-73
2022/03/25 12:32:18;;;;;;;24.75;10.35;;;17.70;45.30;;;;;;5040984;28;20041;-74
2022/03/25 12:35:11;;;;;;;21.80;10.32;;;17.70;45.70;;;;;;5021531;28;20048;-73
2022/03/25 12:38:16;;;;;;;23.73;10.40;;;17.80;43.80;;;;;;5016478;28;20080;-74
2022/03/25 12:40:43;;;;;;;25.52;10.45;;;17.90;42.40;;;;;;5022134;28;20056;-73
2022/03/25 12:43:11;;;;;;;21.40;10.50;;;18.00;45.00;;;;;;5020978;28;20565;-73
2022/03/25 12:45:38;;;;;;;22.55;11.32;;;18.10;45.10;;;;;;5008934;28;20254;-73
2022/03/25 12:48:23;;;;;;;21.15;10.25;;;18.20;44.70;;;;;;5024138;28;20046;-74